Aérodrome :
LOGIN :

S'inscrire | Disclaimer

   EN    FR    IT 

 










Légende :    VFR   VFR Marginal   IFR   IFR Intensif   IFR Très Intensif
Visi : 
Plafond : 
>= 8 km
>= 3000ft
5 à 8 km
1000 à 3000 ft
1500m à 5 km
500 à 1000 ft
800 à 1500m
200 à 500 ft
< 800m
< 200 ft
Symboles :   Orages  Brouillard  Fortes neiges  Fortes précipitations  Vent > 20 kt
SIGMETs :   Divers  Orages  Givrage  Turbulence  Onde Orograph.  Cendres Volcan.






- Altitude de l'aérodrome : 1989 ft
- Code IATA : KLV


LKKV - Karlovy Vary

DERNIER METAR :
  • 050100Z 00000KT 9999 FEW036 12/12 Q1012

METARs EXPIRÉS :
  • 050000Z VRB01KT 9999 -RA NSC 12/12 Q1012
  • 042300Z 19002KT CAVOK 13/12 Q1013
  • 042200Z 11002KT 9999 FEW030 13/12 Q1013

TAF TAF LKKV
Valide du 05 à 00h jusqu'au 06 à 06h UTC


042300Z 0500/0606 VRB02KT 9999 SCT025
BECMG 0502/0504 6000 -RA OVC010
TEMPO 0504/0509 2500 RA BR BKN004
TEMPO 0509/0519 2500 SHRA BKN007CB
BECMG 0519/0521 9999 NSW SCT020
BECMG 0523/0601 2000 BCFG SCT003
TEMPO 0601/0606 0900 FG BKN002
PROB30
TEMPO 0601/0605 0400 FG VV001
BECMG 0604/0606 27005KT



MET'MAP, la Météo Aéronautique d'un coup d'oeil ! - Copyright ORBIFLY Décembre 2007 - Disclaimer

ORBIFLY MET'MAP TEAM :

Programmation & Développement : Alexandra Zaïnal
Sur une idée originale de : Baudouin d'Aumeries
Assistance à la programmation : Marc-Olivier Méhu
Soutien technique & logistique : Manuel Goepfert

Contact : metmap@orbifly.com




SOURCES & CREDITS :

   NOAA